Time;durP1;ratioP1;P1;durP2;ratioP2;P2;SDS_P1;SDS_P2;PMS_P1;PMS_P2;Temp;Humidity;BMP_temperature;BMP_pressure;BME280_temperature;BME280_humidity;BME280_pressure;Samples;Min_cycle;Max_cycle;Signal;HPM_P1;HPM_P2
2021/12/07 00:00:30;;;;;;;50.13;22.67;;;;;;;0.42;100.00;98252.66;5071897;28;20477;-64
2021/12/07 00:02:56;;;;;;;48.53;21.83;;;;;;;0.56;100.00;98252.91;5071726;28;20032;-63
2021/12/07 00:05:22;;;;;;;47.13;20.70;;;;;;;0.42;100.00;98256.09;5071891;28;20024;-64
2021/12/07 00:07:47;;;;;;;45.00;21.00;;;;;;;0.39;100.00;98255.56;5071674;28;20028;-63
2021/12/07 00:10:14;;;;;;;43.40;21.13;;;;;;;0.52;100.00;98251.56;5070151;28;20742;-63
2021/12/07 00:12:42;;;;;;;46.13;20.97;;;;;;;0.80;100.00;98262.75;5071620;28;20404;-63
2021/12/07 00:15:12;;;;;;;43.50;20.80;;;;;;;0.58;100.00;98261.44;5071540;28;20313;-63
2021/12/07 00:17:39;;;;;;;43.10;21.10;;;;;;;0.75;100.00;98257.13;5071002;28;20273;-63
2021/12/07 00:20:09;;;;;;;41.97;20.07;;;;;;;0.70;100.00;98254.94;5071410;28;20734;-64
2021/12/07 00:22:36;;;;;;;45.93;20.47;;;;;;;0.82;100.00;98254.69;5071420;28;20265;-64
2021/12/07 00:25:03;;;;;;;47.63;21.07;;;;;;;0.73;100.00;98249.38;5071476;28;20303;-64
2021/12/07 00:27:28;;;;;;;46.00;21.00;;;;;;;0.85;100.00;98252.56;5071538;28;20604;-64
2021/12/07 00:29:54;;;;;;;41.93;19.93;;;;;;;0.66;100.00;98252.81;5071590;28;20273;-64
2021/12/07 00:32:37;;;;;;;43.83;20.73;;;;;;;0.73;100.00;98252.03;5071437;28;20033;-64
2021/12/07 00:38:19;;;;;;;49.30;22.13;;;;;;;0.85;100.00;98254.38;5069026;28;20288;-64
2021/12/07 00:40:46;;;;;;;52.00;23.37;;;;;;;1.08;100.00;98253.66;5069060;28;20273;-64
2021/12/07 00:43:12;;;;;;;51.27;23.40;;;;;;;1.17;100.00;98251.88;5069073;28;20269;-64
2021/12/07 00:45:40;;;;;;;47.77;22.17;;;;;;;1.29;100.00;98247.16;5068828;28;20368;-64
2021/12/07 00:48:07;;;;;;;49.13;21.50;;;;;;;1.04;100.00;98249.69;5068885;28;20273;-63
2021/12/07 00:50:38;;;;;;;45.43;20.50;;;;;;;1.14;100.00;98244.34;5068863;28;20273;-64
2021/12/07 00:53:05;;;;;;;47.90;21.43;;;;;;;0.71;100.00;98243.47;5068677;28;20326;-64
2021/12/07 00:55:34;;;;;;;44.93;20.20;;;;;;;0.81;100.00;98226.75;5068743;28;20793;-64
2021/12/07 00:58:05;;;;;;;53.40;22.47;;;;;;;0.78;100.00;98224.44;5068019;28;20756;-65
2021/12/07 01:00:32;;;;;;;46.77;21.77;;;;;;;0.89;100.00;98222.34;5068723;28;20285;-64
2021/12/07 01:02:58;;;;;;;46.73;19.87;;;;;;;0.86;100.00;98225.28;5068689;28;20360;-64
2021/12/07 01:05:29;;;;;;;48.87;21.57;;;;;;;0.82;100.00;98217.88;5068662;28;20285;-64
2021/12/07 01:24:43;;;;;;;48.97;21.60;;;;;;;0.43;100.00;98217.50;5070856;28;20268;-64
2021/12/07 01:27:11;;;;;;;48.23;21.67;;;;;;;0.46;100.00;98223.28;5069447;28;20272;-64
2021/12/07 01:29:39;;;;;;;49.80;21.83;;;;;;;0.45;100.00;98213.75;5072994;28;20626;-64
2021/12/07 01:37:40;;;;;;;53.90;22.73;;;;;;;0.58;100.00;98208.03;5074335;28;20273;-65
2021/12/07 01:50:31;;;;;;;50.30;21.47;;;;;;;0.22;100.00;98197.69;5074415;28;20035;-64
2021/12/07 02:00:52;;;;;;;54.40;22.48;;;;;;;0.48;100.00;98220.47;5073204;28;20036;-65
2021/12/07 02:03:18;;;;;;;54.30;22.33;;;;;;;0.51;100.00;98210.47;5074092;28;20038;-65
2021/12/07 02:05:45;;;;;;;50.40;23.00;;;;;;;0.51;100.00;98194.72;5074124;28;20368;-64
2021/12/07 02:08:10;;;;;;;58.93;24.40;;;;;;;0.30;100.00;98195.09;5072664;28;20028;-64
2021/12/07 02:10:37;;;;;;;56.47;23.97;;;;;;;0.43;100.00;98207.00;5073930;28;20272;-64
2021/12/07 02:15:52;;;;;;;65.00;23.75;;;;;;;0.49;100.00;98194.03;5072340;28;20040;-65
2021/12/07 02:18:17;;;;;;;61.43;25.27;;;;;;;0.49;100.00;98191.41;5073732;28;20382;-64
2021/12/07 02:20:47;;;;;;;65.27;25.47;;;;;;;0.44;100.00;98196.34;5073801;28;20047;-64
2021/12/07 02:23:13;;;;;;;62.03;24.85;;;;;;;0.61;100.00;98182.28;5072294;28;20028;-65
2021/12/07 02:25:39;;;;;;;62.27;24.43;;;;;;;0.56;100.00;98183.75;5073728;28;20032;-65
2021/12/07 02:28:11;;;;;;;60.40;24.77;;;;;;;0.49;100.00;98180.91;5073653;28;20284;-64
2021/12/07 02:30:37;;;;;;;56.93;23.83;;;;;;;0.40;100.00;98181.84;5073891;28;20466;-65
2021/12/07 02:33:03;;;;;;;55.10;23.27;;;;;;;0.62;100.00;98183.09;5073425;28;20402;-64
2021/12/07 02:35:28;;;;;;;56.13;23.17;;;;;;;0.70;100.00;98172.63;5073463;28;20028;-65
2021/12/07 02:37:57;;;;;;;53.30;22.73;;;;;;;0.81;100.00;98169.69;5073407;28;20046;-64
2021/12/07 02:40:23;;;;;;;62.77;23.93;;;;;;;0.82;100.00;98165.25;5071935;28;20429;-65
2021/12/07 02:42:48;;;;;;;50.63;22.67;;;;;;;0.63;100.00;98169.81;5073336;28;20264;-64
2021/12/07 02:45:15;;;;;;;55.77;23.20;;;;;;;0.56;100.00;98181.13;5073298;28;20039;-65
2021/12/07 02:47:41;;;;;;;52.03;22.43;;;;;;;0.60;100.00;98174.53;5073068;28;20250;-66
2021/12/07 02:50:08;;;;;;;56.10;23.33;;;;;;;0.81;100.00;98184.69;5073342;28;20370;-64
2021/12/07 02:52:35;;;;;;;57.40;22.50;;;;;;;0.88;100.00;98175.16;5073017;28;20029;-64
2021/12/07 02:55:02;;;;;;;58.83;24.63;;;;;;;0.96;100.00;98181.28;5073264;28;20265;-64
2021/12/07 02:57:30;;;;;;;58.60;24.37;;;;;;;1.07;100.00;98174.91;5072954;28;20320;-64
2021/12/07 03:00:05;;;;;;;56.33;23.80;;;;;;;0.95;100.00;98176.16;5073012;28;20273;-64
2021/12/07 03:02:35;;;;;;;54.90;23.27;;;;;;;0.88;100.00;98188.31;5073100;28;20280;-65
2021/12/07 03:05:13;;;;;;;55.37;23.93;;;;;;;0.59;100.00;98186.03;5073006;28;20261;-64
2021/12/07 03:08:14;;;;;;;54.37;23.27;;;;;;;0.61;100.00;98186.72;5073264;28;20610;-65
2021/12/07 03:27:19;;;;;;;53.47;25.23;;;;;;;0.66;100.00;98187.91;5070129;28;19912;-65
2021/12/07 03:29:44;;;;;;;50.60;23.13;;;;;;;0.82;100.00;98199.44;5070338;28;20746;-64
2021/12/07 03:32:10;;;;;;;53.23;23.50;;;;;;;0.66;100.00;98201.03;5071012;28;20044;-65
2021/12/07 03:34:36;;;;;;;53.77;23.97;;;;;;;0.82;100.00;98194.19;5072433;28;20059;-64
2021/12/07 03:37:03;;;;;;;50.83;23.37;;;;;;;1.04;100.00;98186.56;5072197;28;20313;-65
2021/12/07 03:39:28;;;;;;;57.90;23.87;;;;;;;1.09;100.00;98189.53;5072244;28;20040;-65
2021/12/07 03:41:54;;;;;;;53.53;23.27;;;;;;;0.96;100.00;98194.44;5072184;28;20277;-65
2021/12/07 03:44:19;;;;;;;50.23;22.93;;;;;;;1.28;100.00;98192.88;5072119;28;20385;-65
2021/12/07 03:46:45;;;;;;;54.33;24.73;;;;;;;1.35;100.00;98199.97;5071912;28;20089;-65
2021/12/07 03:49:11;;;;;;;56.77;24.97;;;;;;;1.08;100.00;98201.06;5072057;28;20162;-65
2021/12/07 03:51:37;;;;;;;60.43;25.63;;;;;;;1.32;100.00;98196.84;5071295;28;20835;-65
2021/12/07 03:54:04;;;;;;;51.30;23.50;;;;;;;1.25;100.00;98195.84;5072017;28;20036;-65
2021/12/07 03:56:30;;;;;;;51.87;24.40;;;;;;;1.12;100.00;98198.94;5071741;28;20642;-65
2021/12/07 03:58:55;;;;;;;52.33;24.27;;;;;;;1.31;100.00;98185.50;5071854;28;20721;-65
2021/12/07 04:01:23;;;;;;;55.20;24.40;;;;;;;1.37;100.00;98186.66;5071626;28;20354;-65
2021/12/07 04:03:50;;;;;;;53.57;24.93;;;;;;;1.41;100.00;98183.53;5071814;28;20032;-65
2021/12/07 04:06:16;;;;;;;56.73;25.70;;;;;;;1.12;100.00;98185.78;5071720;28;20261;-65
2021/12/07 04:08:44;;;;;;;46.10;22.20;;;;;;;0.99;100.00;98180.97;5071783;28;20280;-65
2021/12/07 04:11:09;;;;;;;53.83;23.33;;;;;;;1.08;100.00;98184.44;5071677;28;20154;-65
2021/12/07 04:13:35;;;;;;;53.83;23.20;;;;;;;1.29;100.00;98176.94;5070049;28;20368;-65
2021/12/07 04:16:01;;;;;;;51.17;22.67;;;;;;;1.60;100.00;98194.75;5071581;28;20055;-65
2021/12/07 04:18:28;;;;;;;47.23;22.33;;;;;;;1.54;100.00;98192.75;5071358;28;20024;-65
2021/12/07 04:20:53;;;;;;;49.47;22.13;;;;;;;1.49;100.00;98200.34;5071446;28;20032;-65
2021/12/07 04:23:19;;;;;;;48.97;22.20;;;;;;;1.40;100.00;98191.59;5069814;28;20265;-65
2021/12/07 04:25:45;;;;;;;50.60;23.00;;;;;;;1.29;100.00;98200.63;5071256;28;20059;-65
2021/12/07 04:28:11;;;;;;;51.87;22.57;;;;;;;1.40;100.00;98196.84;5071192;28;20113;-65
2021/12/07 04:30:40;;;;;;;50.37;21.90;;;;;;;1.45;100.00;98199.84;5071554;28;20041;-65
2021/12/07 04:33:07;;;;;;;51.23;22.00;;;;;;;1.32;100.00;98195.03;5071263;28;20084;-65
2021/12/07 04:35:34;;;;;;;50.50;22.87;;;;;;;1.18;100.00;98197.44;5071158;28;20274;-65
2021/12/07 04:38:00;;;;;;;49.00;22.30;;;;;;;1.21;100.00;98191.88;5071090;28;20281;-65
2021/12/07 04:40:28;;;;;;;52.70;24.17;;;;;;;1.00;100.00;98192.31;5071079;28;20281;-65
2021/12/07 04:42:55;;;;;;;50.27;22.30;;;;;;;1.11;100.00;98204.34;5071063;28;20298;-65
2021/12/07 04:57:37;;;;;;;54.67;23.73;;;;;;;1.27;100.00;98186.78;5071173;28;20320;-65
2021/12/07 04:58:53;;;;;;;;;;;;;;;1.05;100.00;98179.50;5071664;28;20287;-65
2021/12/07 05:01:19;;;;;;;58.33;24.07;;;;;;;1.20;100.00;98175.25;5069633;28;19912;-65
2021/12/07 05:03:46;;;;;;;51.63;24.00;;;;;;;1.37;100.00;98173.50;5073303;28;20029;-64
2021/12/07 05:06:13;;;;;;;52.93;23.93;;;;;;;1.32;100.00;98173.97;5075089;28;20118;-65
2021/12/07 05:08:43;;;;;;;57.93;25.20;;;;;;;1.19;100.00;98173.63;5074865;28;20257;-65
2021/12/07 05:25:13;;;;;;;49.85;22.65;;;;;;;1.69;100.00;98160.38;5072369;28;20624;-65
2021/12/07 05:38:26;;;;;;;46.90;22.13;;;;;;;1.80;100.00;98156.59;5072240;28;20828;-65
2021/12/07 05:40:51;;;;;;;49.70;21.90;;;;;;;1.86;100.00;98163.00;5072110;28;20385;-65
2021/12/07 05:43:17;;;;;;;48.23;23.53;;;;;;;1.88;100.00;98166.28;5072155;28;20039;-65
2021/12/07 05:45:43;;;;;;;45.80;22.10;;;;;;;1.86;100.00;98157.72;5072236;28;20128;-65
2021/12/07 05:48:08;;;;;;;47.20;22.77;;;;;;;1.70;100.00;98164.66;5072029;28;20159;-65
2021/12/07 05:50:38;;;;;;;45.20;21.77;;;;;;;1.81;100.00;98158.22;5072172;28;20044;-65
2021/12/07 05:53:06;;;;;;;48.17;22.97;;;;;;;1.86;100.00;98163.81;5072056;28;20032;-65
2021/12/07 05:55:33;;;;;;;47.27;23.10;;;;;;;1.39;100.00;98169.69;5073905;28;20334;-65
2021/12/07 05:57:59;;;;;;;51.93;23.73;;;;;;;1.66;100.00;98175.66;5074020;28;20384;-65
2021/12/07 06:00:32;;;;;;;45.70;22.77;;;;;;;1.83;100.00;98174.69;5073976;28;20277;-65
2021/12/07 06:03:04;;;;;;;42.08;21.27;;;;;;;1.67;100.00;98172.03;5072980;28;20611;-65
2021/12/07 06:05:31;;;;;;;46.33;22.80;;;;;;;1.80;100.00;98175.03;5074113;28;20027;-65
2021/12/07 06:07:57;;;;;;;44.73;22.20;;;;;;;1.61;100.00;98170.09;5074087;28;20647;-65
2021/12/07 06:10:22;;;;;;;46.47;21.87;;;;;;;1.52;100.00;98169.22;5073999;28;20254;-65
2021/12/07 06:12:48;;;;;;;53.00;24.17;;;;;;;1.82;100.00;98165.16;5073907;28;20326;-65
2021/12/07 06:15:18;;;;;;;49.47;22.17;;;;;;;1.83;100.00;98176.50;5073101;28;20039;-65
2021/12/07 06:17:44;;;;;;;47.70;22.60;;;;;;;1.83;100.00;98182.59;5072544;28;20028;-65
2021/12/07 06:20:10;;;;;;;44.93;21.53;;;;;;;1.85;100.00;98185.88;5073961;28;20324;-65
2021/12/07 06:22:36;;;;;;;47.03;22.47;;;;;;;1.95;100.00;98189.19;5073644;28;20757;-65
2021/12/07 06:25:03;;;;;;;45.83;22.23;;;;;;;1.92;100.00;98181.59;5072476;28;20385;-65
2021/12/07 06:27:29;;;;;;;46.20;22.17;;;;;;;1.89;100.00;98189.84;5073761;28;20285;-65
2021/12/07 06:29:54;;;;;;;40.77;20.90;;;;;;;2.06;100.00;98193.31;5071037;28;20754;-65
2021/12/07 06:32:20;;;;;;;47.67;22.20;;;;;;;2.08;100.00;98180.75;5053340;28;20043;-65
2021/12/07 06:34:45;;;;;;;43.47;21.00;;;;;;;1.86;100.00;98190.16;5053408;28;20033;-65
2021/12/07 06:37:11;;;;;;;42.60;21.37;;;;;;;1.90;100.00;98183.56;5057207;28;20473;-65
2021/12/07 06:39:36;;;;;;;40.20;20.73;;;;;;;1.75;100.00;98191.31;5062864;28;20028;-65
2021/12/07 06:42:02;;;;;;;42.33;21.23;;;;;;;1.72;100.00;98201.38;5058690;28;20039;-65
2021/12/07 06:44:28;;;;;;;44.70;20.77;;;;;;;1.71;100.00;98200.53;5053637;28;20039;-65
2021/12/07 06:46:54;;;;;;;44.57;21.83;;;;;;;1.67;100.00;98204.47;5053104;28;20536;-65
2021/12/07 06:49:20;;;;;;;42.03;21.30;;;;;;;1.87;100.00;98197.06;5053261;28;20049;-65
2021/12/07 06:51:47;;;;;;;45.57;20.97;;;;;;;1.79;100.00;98200.53;5057298;28;20374;-64
2021/12/07 06:54:13;;;;;;;43.20;22.13;;;;;;;1.91;100.00;98193.13;5062634;28;20592;-64
2021/12/07 06:56:39;;;;;;;41.77;21.73;;;;;;;1.80;100.00;98196.91;5059332;28;20639;-64
2021/12/07 06:59:05;;;;;;;47.83;21.80;;;;;;;1.94;100.00;98200.72;5052969;28;20281;-63
2021/12/07 07:01:31;;;;;;;43.37;21.57;;;;;;;1.95;100.00;98197.09;5062554;28;20428;-63
2021/12/07 07:03:57;;;;;;;44.23;21.40;;;;;;;2.10;100.00;98199.88;5072714;28;20679;-65
2021/12/07 07:06:22;;;;;;;44.70;20.70;;;;;;;1.98;100.00;98201.19;5069142;28;20309;-64
2021/12/07 07:08:50;;;;;;;43.47;21.60;;;;;;;1.84;100.00;98197.41;5072889;28;20032;-64
2021/12/07 07:11:20;;;;;;;42.53;21.43;;;;;;;2.08;100.00;98202.66;5069601;28;20436;-64
2021/12/07 07:13:46;;;;;;;44.17;21.13;;;;;;;1.93;100.00;98211.41;5067103;28;20327;-65
2021/12/07 07:16:12;;;;;;;44.97;21.90;;;;;;;1.89;100.00;98217.97;5072789;28;20753;-63
2021/12/07 07:18:38;;;;;;;46.53;22.87;;;;;;;1.94;100.00;98227.06;5072446;28;20758;-64
2021/12/07 07:21:04;;;;;;;46.27;22.13;;;;;;;1.99;100.00;98227.38;5072586;28;20264;-64
2021/12/07 07:23:30;;;;;;;48.70;24.67;;;;;;;2.11;100.00;98225.22;5067712;28;20627;-64
2021/12/07 07:25:56;;;;;;;49.33;24.23;;;;;;;2.27;100.00;98221.78;5050821;28;20025;-65
2021/12/07 07:28:24;;;;;;;45.23;23.00;;;;;;;2.41;100.00;98226.38;5051944;28;20254;-64
2021/12/07 07:30:49;;;;;;;47.83;23.40;;;;;;;2.42;100.00;98226.19;5051375;28;20060;-65
2021/12/07 07:33:15;;;;;;;50.00;23.60;;;;;;;2.59;100.00;98224.34;5052364;28;20817;-64
2021/12/07 07:35:40;;;;;;;46.07;23.17;;;;;;;2.73;100.00;98226.31;5052471;28;20857;-65
2021/12/07 07:38:06;;;;;;;43.13;22.23;;;;;;;2.62;100.00;98229.31;5067745;28;20029;-64
2021/12/07 07:40:31;;;;;;;43.00;22.77;;;;;;;2.57;100.00;98233.41;5072136;28;20052;-66
2021/12/07 07:42:57;;;;;;;42.90;22.33;;;;;;;2.42;100.00;98234.09;5072148;28;20056;-66
2021/12/07 07:45:23;;;;;;;39.63;21.70;;;;;;;2.51;100.00;98238.38;5072161;28;20032;-64
2021/12/07 07:47:48;;;;;;;45.93;21.67;;;;;;;2.58;100.00;98237.72;5072015;28;20037;-64
2021/12/07 07:50:15;;;;;;;61.77;30.40;;;;;;;2.49;100.00;98237.72;5072074;28;20032;-64
2021/12/07 07:52:40;;;;;;;44.90;21.97;;;;;;;2.31;100.00;98250.25;5071976;28;20024;-65
2021/12/07 07:55:06;;;;;;;40.33;21.63;;;;;;;2.31;100.00;98252.88;5071861;28;20273;-66
2021/12/07 07:57:32;;;;;;;46.73;23.50;;;;;;;2.26;100.00;98252.59;5070327;28;20031;-65
2021/12/07 07:59:58;;;;;;;44.20;23.20;;;;;;;2.14;100.00;98257.34;5071700;28;20028;-64
2021/12/07 08:02:23;;;;;;;47.77;23.80;;;;;;;2.02;100.00;98250.75;5071772;28;20032;-64
2021/12/07 08:04:49;;;;;;;49.23;24.20;;;;;;;2.21;100.00;98254.88;5065272;28;20036;-63
2021/12/07 08:07:15;;;;;;;42.80;22.33;;;;;;;2.22;100.00;98258.34;5051823;28;20111;-63
2021/12/07 08:09:40;;;;;;;44.13;22.13;;;;;;;2.32;100.00;98254.53;5068444;28;20111;-63
2021/12/07 08:12:06;;;;;;;55.27;26.40;;;;;;;2.37;100.00;98259.31;5071620;28;20074;-64
2021/12/07 08:14:33;;;;;;;52.80;25.47;;;;;;;2.40;100.00;98256.38;5071493;28;20032;-64
2021/12/07 08:16:58;;;;;;;59.30;27.10;;;;;;;2.32;100.00;98256.34;5063368;28;20115;-64
2021/12/07 08:19:24;;;;;;;55.33;26.73;;;;;;;2.09;100.00;98258.81;5060918;28;20354;-63
2021/12/07 08:21:50;;;;;;;58.53;27.80;;;;;;;2.16;100.00;98268.56;5058772;28;20032;-62
2021/12/07 08:24:16;;;;;;;59.50;29.17;;;;;;;2.31;100.00;98273.97;5071544;28;20521;-61
2021/12/07 08:26:41;;;;;;;59.37;28.37;;;;;;;2.32;100.00;98277.44;5071251;28;20024;-62
2021/12/07 08:29:07;;;;;;;60.27;28.93;;;;;;;2.26;100.00;98270.22;5071344;28;20028;-61
2021/12/07 08:31:32;;;;;;;59.77;27.37;;;;;;;2.22;100.00;98269.72;5071298;28;20031;-63
2021/12/07 08:34:00;;;;;;;61.73;28.30;;;;;;;2.24;100.00;98273.00;5071247;28;20028;-62
2021/12/07 08:36:27;;;;;;;71.83;33.10;;;;;;;2.22;100.00;98280.25;5071226;28;20024;-62
2021/12/07 08:38:53;;;;;;;59.43;27.77;;;;;;;2.21;100.00;98281.22;5070133;28;20273;-63
2021/12/07 08:41:19;;;;;;;52.80;26.83;;;;;;;2.18;100.00;98284.22;5069279;28;20310;-63
2021/12/07 08:43:45;;;;;;;49.27;25.27;;;;;;;2.18;100.00;98290.31;5069922;28;20032;-63
2021/12/07 08:46:13;;;;;;;52.87;25.87;;;;;;;2.39;100.00;98289.00;5070881;28;20091;-63
2021/12/07 08:48:42;;;;;;;78.57;37.17;;;;;;;2.59;100.00;98289.47;5071037;28;20296;-63
2021/12/07 08:51:10;;;;;;;48.17;25.50;;;;;;;2.54;100.00;98293.41;5071092;28;20742;-64
2021/12/07 08:53:43;;;;;;;51.43;25.57;;;;;;;2.42;100.00;98291.31;5069874;28;20703;-63
2021/12/07 09:01:37;;;;;;;50.50;25.08;;;;;;;2.28;100.00;98303.34;5066759;28;20014;-63
2021/12/07 09:04:04;;;;;;;54.27;24.83;;;;;;;2.30;100.00;98303.16;5070964;28;20071;-65
2021/12/07 09:06:30;;;;;;;52.57;24.80;;;;;;;2.15;100.00;98303.81;5063523;28;20029;-63
2021/12/07 09:08:57;;;;;;;53.50;26.27;;;;;;;2.17;100.00;98312.38;5063597;28;20626;-62
2021/12/07 09:11:23;;;;;;;49.43;25.43;;;;;;;2.25;100.00;98308.09;5067667;28;20272;-61
2021/12/07 09:13:49;;;;;;;53.77;25.80;;;;;;;2.34;100.00;98315.00;5069529;28;20277;-62
2021/12/07 09:16:17;;;;;;;61.20;30.40;;;;;;;2.14;100.00;98311.88;5068536;28;20385;-63
2021/12/07 09:18:43;;;;;;;57.27;27.70;;;;;;;2.03;100.00;98320.09;5063622;28;20308;-63
2021/12/07 09:21:09;;;;;;;57.77;26.90;;;;;;;1.78;100.00;98313.94;5070552;28;20306;-62
2021/12/07 09:23:35;;;;;;;58.20;28.93;;;;;;;1.86;100.00;98310.50;5069464;28;20257;-62
2021/12/07 09:26:02;;;;;;;61.07;28.17;;;;;;;1.90;100.00;98310.03;5066799;28;20284;-62
2021/12/07 09:28:28;;;;;;;57.57;26.23;;;;;;;1.69;100.00;98307.03;5051139;28;20262;-62
2021/12/07 09:30:54;;;;;;;63.47;28.33;;;;;;;1.74;100.00;98318.72;5050866;28;20269;-62
2021/12/07 09:33:25;;;;;;;63.20;28.47;;;;;;;1.89;100.00;98318.91;5050784;28;20021;-62
2021/12/07 09:35:52;;;;;;;64.47;28.57;;;;;;;1.80;100.00;98315.44;5050833;28;20262;-61
2021/12/07 09:38:18;;;;;;;61.40;27.60;;;;;;;2.01;100.00;98322.91;5050801;28;20687;-61
2021/12/07 09:40:45;;;;;;;64.10;29.97;;;;;;;1.88;100.00;98316.44;5050719;28;20272;-60
2021/12/07 09:43:12;;;;;;;53.63;26.87;;;;;;;1.88;100.00;98317.25;5057651;28;20436;-60
2021/12/07 09:45:39;;;;;;;57.00;28.13;;;;;;;1.96;100.00;98316.47;5069153;28;20276;-60
2021/12/07 09:48:06;;;;;;;57.13;27.50;;;;;;;1.82;100.00;98315.28;5070346;28;20323;-60
2021/12/07 09:50:34;;;;;;;48.70;23.97;;;;;;;1.89;100.00;98313.66;5071891;28;20281;-61
2021/12/07 09:53:01;;;;;;;46.70;21.20;;;;;;;1.84;100.00;98318.59;5072632;28;20264;-61
2021/12/07 09:55:28;;;;;;;41.53;20.77;;;;;;;2.03;100.00;98312.19;5073839;28;20272;-61
2021/12/07 09:57:53;;;;;;;44.17;20.53;;;;;;;1.90;100.00;98314.47;5073734;28;21088;-60
2021/12/07 10:00:22;;;;;;;34.43;17.10;;;;;;;1.90;100.00;98315.31;5073994;28;20273;-61
2021/12/07 10:02:49;;;;;;;39.13;19.10;;;;;;;1.79;100.00;98313.78;5073982;28;20028;-61
2021/12/07 10:05:17;;;;;;;41.93;18.80;;;;;;;1.92;100.00;98320.41;5073397;28;20273;-63
2021/12/07 10:07:43;;;;;;;40.50;19.20;;;;;;;1.96;100.00;98314.63;5073720;28;20265;-61
2021/12/07 10:10:19;;;;;;;41.90;19.50;;;;;;;1.87;100.00;98315.63;5074064;28;20272;-61
2021/12/07 10:12:44;;;;;;;34.93;17.30;;;;;;;1.83;100.00;98319.56;5073874;28;20409;-62
2021/12/07 10:15:11;;;;;;;30.67;15.83;;;;;;;1.85;100.00;98316.78;5065760;28;20257;-61
2021/12/07 10:17:42;;;;;;;37.80;17.50;;;;;;;1.95;100.00;98320.09;5069945;28;20020;-62
2021/12/07 10:20:40;;;;;;;39.43;19.80;;;;;;;2.13;100.00;98312.88;5073558;28;20261;-61
2021/12/07 10:23:21;;;;;;;38.13;18.80;;;;;;;2.13;100.00;98318.13;5073426;28;20281;-61
2021/12/07 10:26:12;;;;;;;39.37;19.30;;;;;;;2.12;100.00;98309.41;5073485;28;20256;-61
2021/12/07 10:28:55;;;;;;;40.90;22.00;;;;;;;2.08;100.00;98307.25;5073190;28;20275;-61
2021/12/07 10:31:26;;;;;;;39.45;19.33;;;;;;;2.16;100.00;98305.47;5061445;28;20258;-61
2021/12/07 10:34:16;;;;;;;38.27;18.50;;;;;;;2.01;100.00;98301.81;5052198;28;20044;-61
2021/12/07 10:36:44;;;;;;;39.43;19.33;;;;;;;2.17;100.00;98299.22;5052987;28;20692;-61
2021/12/07 10:39:20;;;;;;;36.30;17.87;;;;;;;2.06;100.00;98301.34;5035465;28;20829;-61
2021/12/07 10:41:49;;;;;;;38.00;20.00;;;;;;;2.00;100.00;98302.81;5053247;28;20266;-61
2021/12/07 10:44:21;;;;;;;40.13;20.27;;;;;;;2.06;100.00;98301.34;5059389;28;20304;-61
2021/12/07 10:46:46;;;;;;;39.17;20.17;;;;;;;2.02;100.00;98302.63;5069547;28;20293;-60
2021/12/07 10:49:17;;;;;;;38.17;19.20;;;;;;;1.88;100.00;98296.19;5070563;28;20261;-60
2021/12/07 10:52:08;;;;;;;40.03;19.53;;;;;;;1.87;100.00;98305.06;5070196;28;20051;-61
2021/12/07 10:54:41;;;;;;;38.60;19.27;;;;;;;1.94;100.00;98292.09;5058190;28;20794;-61
2021/12/07 10:57:09;;;;;;;37.13;20.20;;;;;;;1.93;100.00;98296.53;5071242;28;20284;-62
2021/12/07 10:59:36;;;;;;;40.57;19.13;;;;;;;1.95;100.00;98297.22;5071046;28;20167;-61
2021/12/07 11:02:16;;;;;;;38.43;20.17;;;;;;;2.08;100.00;98296.72;5071949;28;20253;-63
2021/12/07 11:04:44;;;;;;;42.23;24.23;;;;;;;2.06;100.00;98298.69;5072253;28;20261;-61
2021/12/07 11:07:13;;;;;;;42.27;21.67;;;;;;;2.14;100.00;98296.91;5071410;28;20261;-63
2021/12/07 11:10:18;;;;;;;44.10;22.27;;;;;;;1.99;100.00;98300.31;5071431;28;20269;-64
2021/12/07 11:12:52;;;;;;;45.97;25.13;;;;;;;2.11;100.00;98288.47;5071809;28;20241;-62
2021/12/07 11:15:24;;;;;;;43.93;22.97;;;;;;;2.05;100.00;98297.88;5071712;28;20265;-63
2021/12/07 11:17:55;;;;;;;44.23;23.50;;;;;;;2.00;100.00;98296.72;5054353;28;20285;-62
2021/12/07 11:20:25;;;;;;;41.37;21.17;;;;;;;2.06;100.00;98296.91;5035026;28;20385;-63
2021/12/07 11:23:18;;;;;;;49.47;26.00;;;;;;;2.13;100.00;98300.50;5051149;28;20270;-63
2021/12/07 11:31:17;;;;;;;43.97;24.30;;;;;;;2.32;100.00;98283.53;5072503;28;20098;-62
2021/12/07 11:33:43;;;;;;;35.23;19.17;;;;;;;2.46;100.00;98292.59;5072115;28;20308;-62
2021/12/07 11:36:19;;;;;;;33.80;17.93;;;;;;;2.42;100.00;98286.81;5065229;28;20329;-62
2021/12/07 11:38:45;;;;;;;37.07;18.47;;;;;;;2.37;100.00;98291.78;5061782;28;20378;-62
2021/12/07 11:41:20;;;;;;;35.40;21.70;;;;;;;2.44;100.00;98298.03;5069751;28;20273;-63
2021/12/07 11:43:55;;;;;;;36.57;21.03;;;;;;;2.65;100.00;98297.56;5072079;28;20276;-63
2021/12/07 11:46:21;;;;;;;33.60;17.37;;;;;;;2.61;100.00;98284.84;5065745;28;20280;-63
2021/12/07 11:48:47;;;;;;;34.83;20.07;;;;;;;2.89;100.00;98292.22;5065098;28;20310;-63
2021/12/07 11:51:13;;;;;;;31.47;19.43;;;;;;;2.85;100.00;98285.63;5078283;28;20359;-66
2021/12/07 11:53:38;;;;;;;33.13;18.13;;;;;;;2.80;100.00;98287.13;5080566;28;20028;-62
2021/12/07 11:56:05;;;;;;;33.57;19.67;;;;;;;2.85;100.00;98284.81;5071565;28;20030;-63
2021/12/07 11:58:30;;;;;;;32.30;17.80;;;;;;;3.00;100.00;98283.09;5070285;28;20032;-64
2021/12/07 12:00:57;;;;;;;34.87;18.13;;;;;;;2.80;100.00;98285.31;5070385;28;20269;-65
2021/12/07 12:03:24;;;;;;;35.03;23.30;;;;;;;2.89;100.00;98278.19;5071631;28;20028;-62
2021/12/07 12:05:53;;;;;;;33.67;18.67;;;;;;;2.73;100.00;98283.53;5071297;28;20382;-63
2021/12/07 12:08:20;;;;;;;32.07;17.00;;;;;;;2.74;100.00;98277.25;5071615;28;20340;-63
2021/12/07 12:11:01;;;;;;;29.30;17.13;;;;;;;2.77;100.00;98285.63;5067136;28;20304;-63
2021/12/07 12:13:53;;;;;;;28.93;16.17;;;;;;;2.72;100.00;98289.78;5065717;28;20614;-63
2021/12/07 12:16:37;;;;;;;32.43;16.30;;;;;;;2.47;100.00;98279.25;5068904;28;20256;-62
2021/12/07 12:19:18;;;;;;;26.65;14.50;;;;;;;2.65;100.00;98276.44;5056878;28;20384;-63
2021/12/07 12:21:50;;;;;;;29.80;17.30;;;;;;;2.77;100.00;98275.09;5069396;28;20743;-62
2021/12/07 12:24:34;;;;;;;25.67;15.00;;;;;;;2.69;100.00;98277.75;5061374;28;20270;-62
2021/12/07 12:27:27;;;;;;;24.83;15.30;;;;;;;2.88;100.00;98285.28;5068702;28;20291;-63
2021/12/07 12:29:55;;;;;;;23.60;14.77;;;;;;;2.89;100.00;98278.19;5069142;28;20634;-63
2021/12/07 12:32:41;;;;;;;25.53;14.90;;;;;;;2.66;100.00;98278.06;5062886;28;20273;-63
2021/12/07 12:35:09;;;;;;;26.03;14.57;;;;;;;2.52;100.00;98281.41;5069797;28;20266;-63
2021/12/07 12:37:43;;;;;;;25.13;14.63;;;;;;;2.62;100.00;98276.78;5065166;28;20324;-63
2021/12/07 12:40:24;;;;;;;22.80;14.47;;;;;;;2.66;100.00;98277.25;5045081;28;20278;-63
2021/12/07 12:42:52;;;;;;;24.20;13.77;;;;;;;2.63;100.00;98280.25;5065286;28;20300;-62
2021/12/07 12:45:26;;;;;;;26.63;15.70;;;;;;;2.82;100.00;98275.41;5070398;28;20261;-62
2021/12/07 12:47:57;;;;;;;;;;;;;;;2.69;100.00;98282.19;5068367;28;20289;-62
2021/12/07 12:50:32;;;;;;;19.90;13.40;;;;;;;2.80;100.00;98282.66;5070483;28;20455;-62
2021/12/07 12:53:05;;;;;;;21.60;13.20;;;;;;;2.93;100.00;98287.44;5070863;28;20300;-63
2021/12/07 12:55:37;;;;;;;22.77;12.98;;;;;;;2.97;100.00;98285.28;5071090;28;20753;-63
2021/12/07 12:58:09;;;;;;;21.40;13.43;;;;;;;3.13;100.00;98288.69;5069751;28;20024;-63
2021/12/07 13:00:58;;;;;;;21.70;13.60;;;;;;;3.15;100.00;98294.63;5070682;28;20254;-63
2021/12/07 13:03:23;;;;;;;23.03;16.63;;;;;;;3.17;100.00;98287.34;5069612;28;20265;-63
2021/12/07 13:06:00;;;;;;;18.50;12.23;;;;;;;2.92;100.00;98286.59;5070974;28;20315;-62
2021/12/07 13:08:26;;;;;;;23.80;13.00;;;;;;;3.07;100.00;98299.09;5071134;28;20021;-63
2021/12/07 13:11:01;;;;;;;18.80;11.30;;;;;;;3.02;100.00;98291.69;5071141;28;20272;-63
2021/12/07 13:13:31;;;;;;;15.43;9.43;;;;;;;3.27;100.00;98292.44;5071065;28;20769;-64